Time;durP1;ratioP1;P1;durP2;ratioP2;P2;SDS_P1;SDS_P2;PMS_P1;PMS_P2;Temp;Humidity;BMP_temperature;BMP_pressure;BME280_temperature;BME280_humidity;BME280_pressure;Samples;Min_cycle;Max_cycle;Signal;HPM_P1;HPM_P2
2022/03/20 00:00:47;;;;;;;18.10;11.20;;;;;;;5.79;63.22;99450.13;5085895;28;20036;-67
2022/03/20 00:03:14;;;;;;;23.25;11.60;;;;;;;5.79;62.83;99445.75;5085888;28;20028;-67
2022/03/20 00:05:40;;;;;;;22.90;11.23;;;;;;;5.68;62.35;99454.31;5085797;28;20037;-67
2022/03/20 00:08:11;;;;;;;20.95;11.50;;;;;;;5.85;62.20;99450.22;5085689;28;20028;-67
2022/03/20 00:10:37;;;;;;;23.65;12.23;;;;;;;5.77;61.76;99442.28;5085659;28;20246;-67
2022/03/20 00:13:10;;;;;;;21.55;11.43;;;;;;;5.88;61.38;99447.63;5085264;28;20024;-67
2022/03/20 00:15:40;;;;;;;24.52;12.02;;;;;;;5.93;61.13;99443.34;5085574;28;20360;-67
2022/03/20 00:18:09;;;;;;;16.42;9.98;;;;;;;5.92;61.02;99441.63;5085545;28;20065;-67
2022/03/20 00:20:39;;;;;;;28.10;11.73;;;;;;;5.92;60.70;99437.25;5085763;28;20020;-67
2022/03/20 00:23:08;;;;;;;26.88;12.65;;;;;;;5.90;61.16;99433.75;5085562;28;20097;-67
2022/03/20 00:25:34;;;;;;;22.17;11.60;;;;;;;5.83;61.09;99431.06;5085457;28;20070;-67
2022/03/20 00:28:00;;;;;;;28.55;12.50;;;;;;;5.79;61.24;99429.22;5085564;28;20028;-67
2022/03/20 00:30:25;;;;;;;20.00;10.95;;;;;;;5.79;60.96;99419.63;5085382;28;20247;-67
2022/03/20 00:32:51;;;;;;;27.92;12.05;;;;;;;5.84;60.49;99417.13;5085344;28;20035;-67
2022/03/20 00:35:16;;;;;;;26.73;11.40;;;;;;;5.83;60.65;99415.38;5085247;28;20043;-67
2022/03/20 00:37:42;;;;;;;24.25;11.38;;;;;;;5.78;60.75;99422.22;5085172;28;20031;-67
2022/03/20 00:40:08;;;;;;;25.35;12.52;;;;;;;5.83;60.65;99410.16;5085115;28;20027;-67
2022/03/20 00:42:33;;;;;;;21.13;10.32;;;;;;;5.90;60.01;99418.09;5083933;28;20031;-67
2022/03/20 00:44:59;;;;;;;20.05;10.32;;;;;;;5.87;60.06;99407.59;5085010;28;20024;-67
2022/03/20 00:47:24;;;;;;;24.98;11.82;;;;;;;5.80;60.18;99412.69;5084944;28;20043;-67
2022/03/20 00:49:50;;;;;;;23.27;11.65;;;;;;;5.79;60.39;99419.63;5084971;28;20035;-67
2022/03/20 00:52:15;;;;;;;23.52;12.38;;;;;;;5.83;59.93;99394.47;5084938;28;20047;-67
2022/03/20 00:54:41;;;;;;;21.75;11.13;;;;;;;5.67;60.23;99398.59;5084839;28;20083;-67
2022/03/20 00:57:06;;;;;;;30.98;11.90;;;;;;;5.70;60.57;99413.44;5084806;28;20364;-67
2022/03/20 00:59:32;;;;;;;23.35;12.52;;;;;;;5.75;59.35;99406.53;5084756;28;20094;-67
2022/03/20 01:01:57;;;;;;;27.80;12.90;;;;;;;5.75;59.75;99401.28;5084756;28;20324;-67
2022/03/20 01:04:23;;;;;;;22.88;11.57;;;;;;;5.67;59.78;99402.97;5084649;28;20197;-67
2022/03/20 01:06:48;;;;;;;25.50;11.88;;;;;;;5.71;59.59;99389.06;5084590;28;20087;-67
2022/03/20 01:09:14;;;;;;;19.58;11.15;;;;;;;5.60;59.74;99388.09;5084632;28;20051;-67
2022/03/20 01:11:40;;;;;;;22.67;11.15;;;;;;;5.65;60.09;99378.53;5084462;28;20087;-67
2022/03/20 01:14:07;;;;;;;23.45;11.93;;;;;;;5.62;59.81;99368.06;5084495;28;20082;-67
2022/03/20 01:16:33;;;;;;;20.75;10.80;;;;;;;5.51;60.22;99364.47;5084438;28;20031;-67
2022/03/20 01:18:58;;;;;;;19.38;10.93;;;;;;;5.53;60.21;99363.63;5084438;28;20025;-67
2022/03/20 01:21:24;;;;;;;24.05;11.73;;;;;;;5.41;60.08;99367.81;5084421;28;20051;-67
2022/03/20 01:23:49;;;;;;;25.42;11.68;;;;;;;5.34;60.17;99350.31;5084157;28;20048;-67
2022/03/20 01:26:15;;;;;;;30.40;12.60;;;;;;;5.31;60.39;99351.16;5084311;28;20048;-67
2022/03/20 01:28:40;;;;;;;24.17;12.45;;;;;;;5.40;60.13;99342.56;5084213;28;20056;-67
2022/03/20 01:31:08;;;;;;;22.52;12.23;;;;;;;5.37;60.20;99329.47;5084256;28;20024;-67
2022/03/20 01:33:34;;;;;;;26.58;11.10;;;;;;;5.36;60.01;99338.16;5084243;28;20055;-67
2022/03/20 01:36:00;;;;;;;26.10;11.90;;;;;;;5.31;60.23;99338.09;5084225;28;20224;-67
2022/03/20 01:38:26;;;;;;;22.15;11.82;;;;;;;5.28;59.91;99339.81;5084128;28;20028;-67
2022/03/20 01:40:52;;;;;;;26.33;11.93;;;;;;;5.23;60.01;99331.03;5084167;28;20027;-67
2022/03/20 01:43:18;;;;;;;24.45;11.55;;;;;;;5.22;59.80;99326.69;5084338;28;20063;-67
2022/03/20 01:45:44;;;;;;;25.92;11.50;;;;;;;5.21;60.31;99317.09;5084070;28;20031;-67
2022/03/20 01:48:10;;;;;;;28.88;12.77;;;;;;;5.11;60.69;99305.66;5083956;28;20020;-67
2022/03/20 01:50:36;;;;;;;28.15;12.55;;;;;;;5.05;60.58;99310.81;5084011;28;20024;-67
2022/03/20 01:53:02;;;;;;;22.98;11.07;;;;;;;5.02;60.33;99305.53;5083983;28;20029;-67
2022/03/20 01:55:28;;;;;;;22.67;11.65;;;;;;;4.97;60.66;99312.41;5084012;28;20024;-67
2022/03/20 01:57:56;;;;;;;22.48;11.48;;;;;;;4.96;60.31;99315.00;5083960;28;20027;-67
2022/03/20 02:00:25;;;;;;;23.88;12.25;;;;;;;5.06;60.19;99301.25;5084350;28;20027;-67
2022/03/20 02:02:51;;;;;;;27.02;11.45;;;;;;;5.02;59.78;99299.44;5083913;28;20083;-67
2022/03/20 02:05:17;;;;;;;19.58;10.77;;;;;;;4.96;60.32;99294.13;5083869;28;20328;-67
2022/03/20 02:07:44;;;;;;;28.33;11.88;;;;;;;5.05;60.16;99297.75;5083771;28;20368;-67
2022/03/20 02:10:10;;;;;;;23.75;11.40;;;;;;;5.06;59.44;99296.03;5083771;28;20043;-67
2022/03/20 02:12:37;;;;;;;22.83;11.50;;;;;;;5.11;59.50;99294.34;5083795;28;20031;-67
2022/03/20 02:15:05;;;;;;;29.27;12.02;;;;;;;4.93;59.71;99279.34;5083650;28;20048;-67
2022/03/20 02:17:31;;;;;;;25.65;11.85;;;;;;;4.97;59.84;99275.03;5083996;28;20043;-67
2022/03/20 02:19:57;;;;;;;24.35;12.02;;;;;;;4.96;60.08;99270.66;5083784;28;20336;-67
2022/03/20 02:22:24;;;;;;;25.50;11.63;;;;;;;4.94;59.98;99264.56;5083706;28;20032;-67
2022/03/20 02:24:51;;;;;;;23.45;12.00;;;;;;;4.96;59.71;99268.06;5083917;28;20405;-67
2022/03/20 02:27:24;;;;;;;25.77;11.05;;;;;;;5.00;59.70;99259.44;5083512;28;20088;-67
2022/03/20 02:29:58;;;;;;;25.30;12.85;;;;;;;5.01;59.78;99261.19;5083915;28;20017;-67
2022/03/20 02:32:27;;;;;;;24.80;11.93;;;;;;;5.02;59.30;99252.47;5083630;28;20110;-67
2022/03/20 02:34:53;;;;;;;30.67;12.95;;;;;;;4.98;59.39;99245.47;5084916;28;20028;-67
2022/03/20 02:37:20;;;;;;;24.00;11.30;;;;;;;4.93;59.55;99247.19;5087531;28;20025;-67
2022/03/20 02:39:46;;;;;;;23.20;12.18;;;;;;;5.00;59.48;99262.03;5087725;28;20335;-67
2022/03/20 02:42:13;;;;;;;28.83;12.63;;;;;;;5.12;59.56;99246.56;5087424;28;20024;-67
2022/03/20 02:44:48;;;;;;;30.48;13.65;;;;;;;5.07;58.88;99243.00;5087337;28;20259;-67
2022/03/20 02:47:13;;;;;;;24.95;12.18;;;;;;;5.02;59.32;99236.81;5087228;28;20028;-67
2022/03/20 02:49:39;;;;;;;30.33;13.10;;;;;;;5.11;59.29;99243.06;5087245;28;20028;-67
2022/03/20 02:52:06;;;;;;;25.45;11.43;;;;;;;5.12;58.80;99238.72;5087229;28;20028;-67
2022/03/20 02:54:32;;;;;;;29.25;11.70;;;;;;;5.09;59.23;99243.91;5087186;28;20033;-67
2022/03/20 02:56:58;;;;;;;21.25;11.68;;;;;;;5.13;58.78;99236.13;5087112;28;20028;-67
2022/03/20 02:59:23;;;;;;;27.38;11.52;;;;;;;5.15;58.77;99242.22;5087316;28;20090;-67
2022/03/20 03:01:49;;;;;;;28.83;12.45;;;;;;;5.26;58.60;99247.56;5087013;28;20030;-67
2022/03/20 03:04:14;;;;;;;32.45;12.77;;;;;;;5.28;58.34;99256.31;5086991;28;20054;-67
2022/03/20 03:06:39;;;;;;;31.65;12.48;;;;;;;5.30;58.03;99245.00;5087111;28;20024;-67
2022/03/20 03:11:49;;;;;;;23.08;12.25;;;;;;;5.18;58.65;99228.31;5087095;28;20023;-67
2022/03/20 03:16:58;;;;;;;29.10;13.65;;;;;;;5.28;58.07;99240.66;5086802;28;20101;-67
2022/03/20 03:19:23;;;;;;;23.70;12.27;;;;;;;5.31;58.49;99240.69;5086739;28;20024;-67
2022/03/20 03:21:49;;;;;;;27.85;12.55;;;;;;;5.41;57.93;99237.31;5086691;28;20032;-67
2022/03/20 03:24:14;;;;;;;27.58;13.50;;;;;;;5.39;57.78;99236.41;5086790;28;20088;-67
2022/03/20 03:26:40;;;;;;;25.55;11.75;;;;;;;5.35;58.17;99242.44;5086589;28;20083;-67
2022/03/20 03:29:05;;;;;;;29.77;14.18;;;;;;;5.29;58.28;99252.81;5086485;28;20024;-67
2022/03/20 03:31:32;;;;;;;33.45;13.23;;;;;;;5.31;58.04;99238.06;5086552;28;20032;-67
2022/03/20 03:36:41;;;;;;;35.45;13.57;;;;;;;5.33;57.43;99245.03;5086435;28;20207;-67
2022/03/20 03:39:08;;;;;;;27.67;13.70;;;;;;;5.40;57.71;99235.53;5086390;28;20113;-67
2022/03/20 03:41:36;;;;;;;35.25;13.75;;;;;;;5.28;58.61;99235.41;5086294;28;20021;-67
2022/03/20 03:44:01;;;;;;;33.63;14.38;;;;;;;5.40;58.25;99245.97;5086520;28;20091;-67
2022/03/20 03:46:27;;;;;;;27.27;13.50;;;;;;;5.25;57.32;99240.59;5086429;28;20024;-67
2022/03/20 03:48:52;;;;;;;40.88;14.57;;;;;;;5.47;57.71;99247.81;5086367;28;20016;-67
2022/03/20 03:51:17;;;;;;;24.02;11.70;;;;;;;5.52;57.26;99256.56;5086247;28;20020;-67
2022/03/20 03:53:43;;;;;;;36.83;15.50;;;;;;;5.45;57.12;99246.91;5086116;28;20088;-67
2022/03/20 03:56:08;;;;;;;34.25;13.85;;;;;;;5.49;57.81;99246.06;5086060;28;20088;-67
2022/03/20 03:58:34;;;;;;;31.50;14.38;;;;;;;5.53;57.59;99247.84;5086013;28;20248;-67
2022/03/20 04:01:00;;;;;;;39.20;14.05;;;;;;;5.48;57.42;99245.22;5086011;28;20087;-67
2022/03/20 04:03:26;;;;;;;35.88;14.18;;;;;;;5.35;57.85;99238.09;5085858;28;20020;-67
2022/03/20 04:05:51;;;;;;;31.15;14.35;;;;;;;5.42;58.41;99249.47;5085884;28;20134;-67
2022/03/20 04:08:17;;;;;;;28.65;12.98;;;;;;;5.36;58.98;99254.63;5085804;28;20024;-67
2022/03/20 04:10:42;;;;;;;33.22;14.45;;;;;;;5.41;59.71;99258.19;5085669;28;20024;-67
2022/03/20 04:13:08;;;;;;;39.25;14.80;;;;;;;5.37;58.36;99257.25;5085731;28;20054;-67
2022/03/20 04:15:33;;;;;;;33.10;15.02;;;;;;;5.35;59.98;99252.91;5085558;28;20355;-67
2022/03/20 04:18:01;;;;;;;29.98;13.88;;;;;;;5.37;60.94;99261.59;5085866;28;20054;-67
2022/03/20 04:20:27;;;;;;;33.38;13.43;;;;;;;5.38;60.58;99250.31;5085602;28;20044;-67
2022/03/20 04:25:40;;;;;;;35.20;15.10;;;;;;;5.33;61.21;99249.38;5085484;28;20228;-67
2022/03/20 04:28:05;;;;;;;29.42;13.77;;;;;;;5.33;60.40;99244.16;5085333;28;20083;-67
2022/03/20 04:30:32;;;;;;;44.17;15.20;;;;;;;5.38;60.26;99252.94;5085357;28;20024;-67
2022/03/20 04:32:58;;;;;;;37.38;15.30;;;;;;;5.39;59.10;99257.28;5085366;28;20032;-67
2022/03/20 04:35:24;;;;;;;37.60;15.45;;;;;;;5.40;59.31;99251.19;5085248;28;20030;-67
2022/03/20 04:37:54;;;;;;;36.30;15.25;;;;;;;5.38;59.31;99251.16;5085212;28;20020;-67
2022/03/20 04:40:20;;;;;;;39.33;15.48;;;;;;;5.49;59.02;99257.41;5085431;28;20020;-67
2022/03/20 04:42:46;;;;;;;31.10;13.93;;;;;;;5.47;58.57;99258.25;5085175;28;20028;-67
2022/03/20 04:45:12;;;;;;;40.20;16.25;;;;;;;5.46;58.76;99256.47;5085046;28;20029;-67
2022/03/20 04:58:35;;;;;;;32.85;14.88;;;;;;;5.52;58.70;99256.56;5084337;28;20031;-67
2022/03/20 05:01:01;;;;;;;35.45;14.93;;;;;;;5.55;58.74;99256.59;5084741;28;20273;-67
2022/03/20 05:03:27;;;;;;;37.63;16.33;;;;;;;5.73;58.05;99251.56;5084748;28;20051;-67
2022/03/20 05:05:53;;;;;;;34.85;14.60;;;;;;;5.54;58.68;99252.22;5084620;28;20024;-67
2022/03/20 05:08:18;;;;;;;33.25;15.45;;;;;;;5.51;58.95;99254.81;5084585;28;20078;-67
2022/03/20 05:13:28;;;;;;;37.95;17.15;;;;;;;5.47;59.02;99263.47;5084381;28;20023;-67
2022/03/20 05:15:57;;;;;;;31.90;15.63;;;;;;;5.56;58.83;99271.38;5084578;28;20052;-67
2022/03/20 05:18:23;;;;;;;34.75;15.73;;;;;;;5.48;58.93;99271.31;5084424;28;20016;-67
2022/03/20 05:20:51;;;;;;;37.40;15.65;;;;;;;5.42;59.49;99265.16;5084451;28;20022;-67
2022/03/20 05:23:17;;;;;;;44.63;15.63;;;;;;;5.32;60.91;99273.75;5084423;28;20095;-67
2022/03/20 05:25:42;;;;;;;40.80;17.05;;;;;;;5.23;60.65;99268.41;5084360;28;20024;-67
2022/03/20 05:28:08;;;;;;;33.80;14.60;;;;;;;5.25;61.04;99266.72;5084232;28;20328;-67
2022/03/20 05:30:33;;;;;;;39.45;16.52;;;;;;;5.32;60.84;99273.75;5084295;28;20260;-67
2022/03/20 05:32:59;;;;;;;38.85;16.25;;;;;;;5.49;59.82;99266.97;5084244;28;20231;-67
2022/03/20 05:35:25;;;;;;;44.38;16.77;;;;;;;5.40;59.61;99261.63;5084219;28;20028;-67
2022/03/20 05:37:51;;;;;;;35.85;16.15;;;;;;;5.37;60.94;99266.81;5084165;28;20040;-67
2022/03/20 05:40:17;;;;;;;37.88;16.08;;;;;;;5.36;60.23;99260.75;5084213;28;20028;-67
2022/03/20 05:42:42;;;;;;;38.67;16.80;;;;;;;5.38;59.52;99265.97;5084129;28;20024;-67
2022/03/20 05:45:10;;;;;;;35.75;16.23;;;;;;;5.36;60.87;99270.28;5084127;28;20070;-67
2022/03/20 05:47:37;;;;;;;37.25;16.05;;;;;;;5.36;61.27;99268.56;5084256;28;20243;-67
2022/03/20 05:50:05;;;;;;;37.95;15.23;;;;;;;5.32;61.01;99260.69;5084021;28;20020;-67
2022/03/20 05:52:31;;;;;;;36.22;16.98;;;;;;;5.31;60.44;99266.78;5084058;28;20024;-67
2022/03/20 05:55:00;;;;;;;40.83;16.35;;;;;;;5.41;59.75;99269.47;5083948;28;20016;-67
2022/03/20 06:00:18;;;;;;;33.22;16.25;;;;;;;5.27;61.43;99270.19;5082794;28;20058;-67
2022/03/20 06:02:43;;;;;;;36.00;16.92;;;;;;;5.30;60.30;99271.13;5082951;28;20055;-67
2022/03/20 06:05:09;;;;;;;34.00;13.70;;;;;;;5.35;60.95;99273.78;5081811;28;20020;-67
2022/03/20 06:07:46;;;;;;;42.58;17.63;;;;;;;5.33;60.94;99280.69;5083123;28;20024;-67
2022/03/20 06:10:20;;;;;;;37.67;15.70;;;;;;;5.38;60.75;99279.03;5084534;28;20020;-67
2022/03/20 06:12:46;;;;;;;43.92;17.27;;;;;;;5.40;61.37;99282.50;5086924;28;20024;-67
2022/03/20 06:15:13;;;;;;;38.55;18.00;;;;;;;5.42;62.74;99286.03;5086676;28;20043;-67
2022/03/20 06:17:46;;;;;;;45.25;16.75;;;;;;;5.43;63.10;99282.56;5086959;28;20073;-67
2022/03/20 06:20:14;;;;;;;39.03;16.60;;;;;;;5.45;61.76;99275.63;5086960;28;20032;-67
2022/03/20 06:22:44;;;;;;;45.00;18.17;;;;;;;5.52;62.08;99277.44;5086879;28;20047;-67
2022/03/20 06:25:15;;;;;;;45.42;18.58;;;;;;;5.75;60.45;99270.69;5087155;28;20020;-67
2022/03/20 06:27:46;;;;;;;40.03;16.73;;;;;;;5.77;59.86;99275.09;5086622;28;20048;-67
2022/03/20 06:30:13;;;;;;;36.65;16.67;;;;;;;5.84;60.08;99276.06;5086729;28;20084;-67
2022/03/20 06:32:42;;;;;;;41.75;17.20;;;;;;;5.83;60.04;99290.00;5086969;28;20366;-67
2022/03/20 06:35:09;;;;;;;41.60;16.52;;;;;;;5.80;60.04;99279.47;5086650;28;20378;-67
2022/03/20 06:37:36;;;;;;;46.85;18.33;;;;;;;5.85;59.84;99288.25;5087165;28;20016;-67
2022/03/20 06:40:02;;;;;;;40.85;17.33;;;;;;;5.98;59.58;99284.91;5086093;28;20020;-67
2022/03/20 06:42:28;;;;;;;37.45;16.50;;;;;;;5.99;60.02;99287.53;5086468;28;20030;-67
2022/03/20 06:44:54;;;;;;;45.53;17.42;;;;;;;6.04;59.43;99298.00;5086421;28;20020;-66
2022/03/20 06:47:21;;;;;;;43.67;19.70;;;;;;;6.10;59.77;99305.91;5086316;28;20066;-66
2022/03/20 06:49:47;;;;;;;40.50;17.98;;;;;;;6.17;59.66;99299.91;5086323;28;20020;-66
2022/03/20 06:52:12;;;;;;;41.67;18.35;;;;;;;6.43;58.88;99311.44;5085940;28;20044;-66
2022/03/20 06:54:38;;;;;;;38.20;17.73;;;;;;;6.49;59.35;99316.72;5086309;28;20067;-67
2022/03/20 06:57:03;;;;;;;50.83;20.10;;;;;;;6.58;58.77;99316.75;5086499;28;20347;-67
2022/03/20 06:59:29;;;;;;;41.10;18.35;;;;;;;6.90;58.41;99310.03;5086204;28;20026;-67
2022/03/20 07:01:54;;;;;;;44.95;18.27;;;;;;;7.18;57.29;99327.59;5086123;28;20087;-67
2022/03/20 07:04:19;;;;;;;55.38;18.52;;;;;;;7.15;57.12;99322.34;5086053;28;20231;-67
2022/03/20 07:06:45;;;;;;;40.63;18.75;;;;;;;7.21;58.73;99332.84;5085680;28;20024;-67
2022/03/20 07:09:10;;;;;;;45.15;18.13;;;;;;;7.48;57.93;99327.75;5085963;28;20223;-67
2022/03/20 07:11:36;;;;;;;45.58;20.45;;;;;;;7.38;57.10;99341.69;5085893;28;20029;-67
2022/03/20 07:14:01;;;;;;;47.65;18.90;;;;;;;7.38;57.02;99352.16;5085721;28;20051;-67
2022/03/20 07:16:31;;;;;;;35.72;17.50;;;;;;;7.17;58.02;99345.91;5085868;28;20069;-67
2022/03/20 07:18:57;;;;;;;43.65;18.85;;;;;;;7.12;57.79;99353.75;5085673;28;20212;-67
2022/03/20 07:21:23;;;;;;;49.03;19.13;;;;;;;7.44;57.10;99362.63;5085588;28;20023;-67
2022/03/20 07:23:48;;;;;;;41.00;16.80;;;;;;;7.61;56.67;99360.97;5086007;28;20238;-67
2022/03/20 07:31:42;;;;;;;47.50;19.38;;;;;;;7.60;57.40;99374.97;5085223;28;20322;-67
2022/03/20 07:34:08;;;;;;;43.95;18.45;;;;;;;7.59;58.11;99378.41;5085575;28;20024;-67
2022/03/20 07:36:34;;;;;;;47.10;19.40;;;;;;;7.57;57.82;99372.31;5085523;28;20067;-67
2022/03/20 07:38:59;;;;;;;49.72;19.50;;;;;;;7.48;57.96;99379.25;5085741;28;20031;-67
2022/03/20 07:41:25;;;;;;;42.50;18.75;;;;;;;7.50;58.14;99373.13;5085444;28;20332;-67
2022/03/20 07:43:51;;;;;;;45.40;17.25;;;;;;;7.41;58.62;99399.31;5085632;28;20190;-67
2022/03/20 07:46:17;;;;;;;44.28;17.13;;;;;;;7.11;58.78;99383.41;5085188;28;20200;-67
2022/03/20 07:48:42;;;;;;;44.55;17.92;;;;;;;7.19;59.38;99397.44;5085197;28;20115;-67
2022/03/20 07:51:07;;;;;;;43.22;18.17;;;;;;;7.24;59.35;99393.09;5085233;28;20079;-67
2022/03/20 07:53:33;;;;;;;43.33;19.08;;;;;;;7.29;59.14;99398.34;5085190;28;20279;-67
2022/03/20 07:55:58;;;;;;;41.15;18.48;;;;;;;7.35;59.33;99396.66;5085165;28;20212;-67
2022/03/20 07:58:24;;;;;;;52.47;19.42;;;;;;;7.42;59.85;99401.06;5084730;28;20088;-67
2022/03/20 08:00:50;;;;;;;43.63;16.90;;;;;;;7.41;59.67;99399.31;5085064;28;20347;-67
2022/03/20 08:03:15;;;;;;;48.53;18.88;;;;;;;7.42;60.37;99406.28;5085019;28;20024;-67
2022/03/20 08:05:41;;;;;;;42.33;19.63;;;;;;;7.46;60.71;99405.44;5084980;28;20036;-65
2022/03/20 08:08:11;;;;;;;42.60;18.20;;;;;;;7.66;60.96;99406.38;5084873;28;20043;-66
2022/03/20 08:10:36;;;;;;;46.78;18.45;;;;;;;7.70;61.54;99402.94;5084362;28;20328;-66
2022/03/20 08:13:02;;;;;;;44.97;18.48;;;;;;;7.70;60.75;99405.56;5084830;28;20062;-66
2022/03/20 08:15:27;;;;;;;46.97;18.60;;;;;;;7.72;61.25;99411.66;5084627;28;20044;-66
2022/03/20 08:17:53;;;;;;;47.80;19.58;;;;;;;7.89;61.55;99420.50;5085001;28;20012;-66
2022/03/20 08:20:19;;;;;;;46.63;20.52;;;;;;;8.11;62.35;99414.44;5084686;28;20347;-66
2022/03/20 08:22:44;;;;;;;46.30;18.77;;;;;;;8.79;61.09;99428.56;5084617;28;20024;-66
2022/03/20 08:25:10;;;;;;;42.22;19.02;;;;;;;8.48;61.74;99431.16;5084169;28;20028;-66
2022/03/20 08:27:48;;;;;;;43.75;19.58;;;;;;;8.43;62.61;99430.28;5084753;28;20025;-66
2022/03/20 08:30:15;;;;;;;46.42;18.20;;;;;;;8.70;62.26;99436.41;5084776;28;20020;-66
2022/03/20 08:32:42;;;;;;;46.80;18.88;;;;;;;8.54;62.37;99450.41;5080423;28;20036;-66
2022/03/20 08:35:08;;;;;;;56.33;21.60;;;;;;;8.58;63.48;99439.03;5084381;28;20247;-66
2022/03/20 08:37:35;;;;;;;44.28;18.98;;;;;;;8.73;63.18;99441.69;5083948;28;20074;-67
2022/03/20 08:40:02;;;;;;;46.72;18.58;;;;;;;9.05;63.63;99449.53;5084266;28;20029;-67
2022/03/20 08:42:28;;;;;;;43.33;19.17;;;;;;;9.06;63.40;99450.44;5084218;28;20020;-67
2022/03/20 08:44:53;;;;;;;54.67;20.25;;;;;;;9.18;63.23;99456.56;5084422;28;20044;-67
2022/03/20 08:47:19;;;;;;;51.83;18.63;;;;;;;9.37;63.78;99455.66;5085023;28;20024;-66
2022/03/20 08:49:45;;;;;;;41.38;18.23;;;;;;;9.49;63.13;99452.13;5085002;28;20024;-66
2022/03/20 08:52:10;;;;;;;53.85;21.27;;;;;;;9.45;63.59;99467.03;5084991;28;20032;-66
2022/03/20 08:54:35;;;;;;;49.28;20.48;;;;;;;9.14;64.05;99453.94;5084895;28;20247;-67
2022/03/20 08:57:05;;;;;;;36.67;18.23;;;;;;;9.07;64.47;99467.94;5084933;28;20438;-67
2022/03/20 08:59:31;;;;;;;52.15;20.38;;;;;;;8.90;64.31;99482.81;5084801;28;20201;-67
2022/03/20 09:01:56;;;;;;;47.10;20.75;;;;;;;8.83;65.65;99476.69;5084763;28;20095;-67
2022/03/20 09:04:22;;;;;;;49.47;20.75;;;;;;;8.87;65.96;99474.94;5084770;28;20350;-67
2022/03/20 09:06:47;;;;;;;52.28;21.05;;;;;;;8.82;66.23;99476.69;5084770;28;20091;-67
2022/03/20 09:09:14;;;;;;;49.17;20.02;;;;;;;8.85;66.51;99481.94;5081183;28;20025;-67
2022/03/20 09:11:41;;;;;;;51.10;22.05;;;;;;;8.78;67.13;99471.44;5082724;28;20063;-67
2022/03/20 09:14:07;;;;;;;46.03;21.15;;;;;;;8.96;66.50;99472.31;5083232;28;20056;-67
2022/03/20 09:19:18;;;;;;;48.22;21.20;;;;;;;8.99;67.10;99472.31;5084558;28;20016;-67
2022/03/20 09:21:44;;;;;;;50.15;21.45;;;;;;;9.02;67.21;99481.09;5084378;28;20024;-67
2022/03/20 09:24:11;;;;;;;44.40;19.70;;;;;;;8.96;68.05;99480.19;5084626;28;20048;-67
2022/03/20 09:26:37;;;;;;;47.20;20.23;;;;;;;8.82;68.28;99483.69;5084344;28;20080;-67
2022/03/20 09:29:04;;;;;;;44.28;20.02;;;;;;;8.98;67.78;99478.47;5084240;28;20050;-67
2022/03/20 09:31:31;;;;;;;49.38;20.15;;;;;;;9.49;67.11;99476.66;5084304;28;20024;-67
2022/03/20 09:33:57;;;;;;;51.58;19.02;;;;;;;10.11;66.00;99492.28;5084254;28;20219;-67
2022/03/20 09:36:22;;;;;;;39.40;17.92;;;;;;;10.83;63.46;99486.63;5084191;28;20024;-67
2022/03/20 09:38:48;;;;;;;44.25;18.83;;;;;;;10.43;64.77;99486.00;5084206;28;20393;-67
2022/03/20 09:41:13;;;;;;;32.50;16.80;;;;;;;10.40;65.27;99490.41;5084104;28;20035;-67
2022/03/20 09:43:40;;;;;;;41.40;18.40;;;;;;;10.07;66.74;99493.19;5083988;28;20025;-67
2022/03/20 09:46:06;;;;;;;34.78;17.10;;;;;;;10.03;67.64;99504.56;5084075;28;20024;-67
2022/03/20 09:48:32;;;;;;;35.95;16.17;;;;;;;9.90;68.44;99508.13;5084248;28;20035;-67
2022/03/20 09:51:00;;;;;;;33.58;15.85;;;;;;;10.09;68.00;99500.19;5084044;28;20035;-67
2022/03/20 09:53:26;;;;;;;30.95;15.10;;;;;;;9.99;68.87;99513.31;5084033;28;20061;-67
2022/03/20 09:55:55;;;;;;;30.38;15.35;;;;;;;9.49;69.88;99504.69;5083978;28;20347;-67
2022/03/20 09:58:27;;;;;;;32.40;14.13;;;;;;;9.42;71.30;99508.19;5083895;28;20040;-67
2022/03/20 10:00:54;;;;;;;33.47;15.32;;;;;;;9.59;70.59;99503.81;5083967;28;20066;-67
2022/03/20 10:03:22;;;;;;;28.30;14.02;;;;;;;9.77;71.66;99507.25;5083925;28;20055;-67
2022/03/20 10:06:06;;;;;;;31.38;14.63;;;;;;;9.50;71.98;99502.06;5083878;28;20028;-67
2022/03/20 10:08:32;;;;;;;30.65;14.50;;;;;;;9.58;72.11;99502.03;5083760;28;20035;-67
2022/03/20 10:11:16;;;;;;;28.17;13.20;;;;;;;9.97;72.62;99496.69;5083758;28;20024;-67
2022/03/20 10:14:05;;;;;;;19.95;11.27;;;;;;;9.99;72.77;99502.81;5083841;28;20028;-67
2022/03/20 10:16:30;;;;;;;21.48;11.57;;;;;;;10.19;72.75;99507.16;5083823;28;20224;-67
2022/03/20 10:18:55;;;;;;;27.35;12.13;;;;;;;10.53;72.10;99502.59;5083788;28;20034;-67
2022/03/20 10:21:21;;;;;;;24.67;12.57;;;;;;;10.42;71.70;99499.16;5083832;28;20238;-67
2022/03/20 10:23:46;;;;;;;27.20;11.85;;;;;;;11.09;70.96;99504.88;5083727;28;20087;-67
2022/03/20 10:26:17;;;;;;;21.42;11.93;;;;;;;12.06;66.84;99505.75;5083682;28;20050;-67
2022/03/20 10:28:45;;;;;;;25.38;12.35;;;;;;;12.70;65.40;99515.47;5083646;28;20029;-67
2022/03/20 10:31:15;;;;;;;21.83;11.30;;;;;;;12.55;64.93;99513.03;5083663;28;20043;-67
2022/03/20 10:33:41;;;;;;;17.45;10.52;;;;;;;13.09;63.54;99510.53;5083586;28;20024;-67
2022/03/20 10:36:15;;;;;;;19.05;10.82;;;;;;;12.98;62.99;99498.28;5083614;28;20196;-67
2022/03/20 10:38:42;;;;;;;18.38;10.32;;;;;;;13.38;62.52;99498.56;5083504;28;20027;-67
2022/03/20 10:41:34;;;;;;;21.30;11.13;;;;;;;13.01;63.80;99498.28;5083532;28;20021;-67
2022/03/20 10:44:00;;;;;;;16.08;8.93;;;;;;;12.44;64.91;99495.59;5083660;28;20368;-67
2022/03/20 10:46:28;;;;;;;18.08;9.48;;;;;;;11.94;65.17;99504.13;5083528;28;20320;-67
2022/03/20 10:48:56;;;;;;;20.15;9.48;;;;;;;11.73;66.38;99506.97;5083425;28;20025;-67
2022/03/20 10:51:39;;;;;;;21.27;10.25;;;;;;;11.91;66.97;99509.41;5083438;28;20028;-67
2022/03/20 10:54:08;;;;;;;20.35;10.45;;;;;;;12.03;67.01;99503.13;5083481;28;20024;-67
2022/03/20 10:56:35;;;;;;;16.63;9.45;;;;;;;12.27;66.55;99503.72;5085764;28;20095;-67
2022/03/20 10:59:11;;;;;;;19.98;10.02;;;;;;;12.98;65.25;99505.38;5087160;28;20020;-67
2022/03/20 11:01:38;;;;;;;16.15;9.27;;;;;;;13.44;63.37;99505.56;5087390;28;20024;-67
2022/03/20 11:04:06;;;;;;;16.02;9.50;;;;;;;14.05;62.39;99512.31;5087087;28;20339;-67
2022/03/20 11:06:32;;;;;;;19.48;9.70;;;;;;;14.64;60.23;99517.31;5087039;28;20379;-67
2022/03/20 11:08:57;;;;;;;23.55;9.65;;;;;;;14.57;59.92;99509.53;5086928;28;20089;-67
2022/03/20 11:11:25;;;;;;;18.58;8.85;;;;;;;14.47;60.20;99498.28;5087077;28;20020;-67
2022/03/20 11:13:50;;;;;;;19.63;9.90;;;;;;;13.96;61.44;99503.69;5086748;28;20355;-67
2022/03/20 11:16:22;;;;;;;15.63;9.05;;;;;;;14.10;59.93;99506.94;5087123;28;20021;-67
2022/03/20 11:18:51;;;;;;;16.75;10.07;;;;;;;14.11;59.30;99506.06;5087137;28;20039;-67
2022/03/20 11:21:23;;;;;;;18.73;9.20;;;;;;;14.51;59.38;99493.75;5086666;28;20095;-67
2022/03/20 11:23:51;;;;;;;19.35;9.23;;;;;;;14.94;57.47;99499.88;5086816;28;20032;-67
2022/03/20 11:26:20;;;;;;;17.17;8.93;;;;;;;15.07;57.29;99506.63;5086915;28;20020;-67
2022/03/20 11:28:46;;;;;;;19.40;9.25;;;;;;;15.24;57.85;99493.81;5086543;28;20028;-67
2022/03/20 11:31:13;;;;;;;17.98;9.13;;;;;;;15.49;54.65;99500.31;5086572;28;20023;-67
2022/03/20 11:33:42;;;;;;;18.20;9.30;;;;;;;15.66;54.46;99490.13;5086524;28;20091;-67
2022/03/20 11:36:08;;;;;;;19.48;8.57;;;;;;;15.35;54.33;99491.81;5086747;28;20024;-67
2022/03/20 11:38:35;;;;;;;16.17;10.05;;;;;;;15.13;54.87;99491.44;5086490;28;20265;-67
2022/03/20 11:41:11;;;;;;;20.75;10.60;;;;;;;15.56;55.60;99478.00;5086638;28;20117;-67
2022/03/20 11:43:40;;;;;;;16.27;10.10;;;;;;;15.42;54.55;99481.91;5086319;28;20024;-67
2022/03/20 11:46:11;;;;;;;19.45;10.30;;;;;;;15.40;54.28;99484.63;5086557;28;20026;-67
2022/03/20 11:48:37;;;;;;;19.08;9.02;;;;;;;14.99;54.54;99482.94;5086196;28;20028;-67
2022/03/20 11:51:02;;;;;;;20.42;10.35;;;;;;;14.86;56.04;99485.91;5086460;28;20254;-67
2022/03/20 11:53:29;;;;;;;22.63;10.57;;;;;;;14.70;56.46;99473.91;5086160;28;20320;-67
2022/03/20 11:55:54;;;;;;;23.85;10.82;;;;;;;14.47;57.56;99471.78;5086078;28;20025;-67
2022/03/20 11:58:24;;;;;;;17.95;9.02;;;;;;;14.79;58.33;99482.53;5086087;28;20016;-67